Time;durP1;ratioP1;P1;durP2;ratioP2;P2;SDS_P1;SDS_P2;PMS_P1;PMS_P2;Temp;Humidity;BMP_temperature;BMP_pressure;BME280_temperature;BME280_humidity;BME280_pressure;Samples;Min_cycle;Max_cycle;Signal;HPM_P1;HPM_P2
2023/07/12 00:10:56;;;;;;;;;;;;;;;25.22;47.22;100230.69;41773511;23;20389;-90
2023/07/12 00:30:56;;;;;;;;;;;;;;;25.29;45.93;100226.44;41608537;28;19913;-86
2023/07/12 00:50:57;;;;;;;;;;;;;;;24.96;46.72;100214.66;41602351;28;19929;-86
2023/07/12 01:11:00;;;;;;;;;;;;;;;24.69;47.49;100214.50;41630287;28;19933;-85
2023/07/12 01:31:00;;;;;;;;;;;;;;;24.58;47.77;100175.81;41633973;28;19925;-84
2023/07/12 01:51:00;;;;;;;;;;;;;;;24.43;47.66;100188.66;41593230;28;20406;-85
2023/07/12 02:11:01;;;;;;;;;;;;;;;24.31;47.55;100205.69;41643006;28;20008;-87
2023/07/12 02:31:20;;;;;;;;;;;;;;;24.26;47.58;100176.19;41637445;28;19921;-87
2023/07/12 02:51:20;;;;;;;;;;;;;;;24.26;48.07;100161.16;41643457;28;19969;-89
2023/07/12 03:11:23;;;;;;;;;;;;;;;24.17;48.35;100155.88;41636230;28;19929;-85
2023/07/12 03:31:24;;;;;;;;;;;;;;;24.22;48.28;100153.66;41613115;28;19956;-83
2023/07/12 03:51:24;;;;;;;;;;;;;;;24.18;48.42;100168.13;41596416;28;19980;-86
2023/07/12 04:11:26;;;;;;;;;;;;;;;24.37;48.38;100161.97;41616412;28;19916;-85
2023/07/12 04:31:27;;;;;;;;;;;;;;;24.59;47.42;100171.31;41641682;28;19929;-89
2023/07/12 04:51:27;;;;;;;;;;;;;;;24.82;47.22;100129.44;41611601;28;19933;-81
2023/07/12 05:11:28;;;;;;;;;;;;;;;24.55;48.19;100162.84;41657612;28;19933;-79
2023/07/12 05:31:28;;;;;;;;;;;;;;;24.81;47.13;100148.13;41638951;28;19925;-83
2023/07/12 05:51:29;;;;;;;;;;;;;;;24.91;47.15;100147.09;41634906;28;19929;-80
2023/07/12 06:11:29;;;;;;;;;;;;;;;25.16;46.97;100152.63;41667781;28;20025;-85
2023/07/12 06:31:29;;;;;;;;;;;;;;;25.44;47.13;100085.47;41657423;28;19952;-86
2023/07/12 06:51:30;;;;;;;;;;;;;;;25.48;46.16;100082.34;41624229;28;20299;-78
2023/07/12 07:11:30;;;;;;;;;;;;;;;25.55;46.07;100096.66;41609956;28;19955;-82
2023/07/12 07:31:37;;;;;;;;;;;;;;;25.74;45.63;100025.81;41654712;28;19929;-81
2023/07/12 07:51:38;;;;;;;;;;;;;;;25.94;45.84;99991.09;41564418;28;19936;-80
2023/07/12 08:11:39;;;;;;;;;;;;;;;26.13;46.21;99952.91;41635628;28;19990;-85
2023/07/12 08:31:39;;;;;;;;;;;;;;;26.32;46.43;99919.94;41673868;28;20861;-85
2023/07/12 08:51:40;;;;;;;;;;;;;;;26.52;47.05;99939.03;41603366;28;19929;-83
2023/07/12 09:11:40;;;;;;;;;;;;;;;26.69;47.00;99955.78;41650602;28;19942;-83
2023/07/12 09:31:43;;;;;;;;;;;;;;;26.86;47.43;99954.00;41655095;28;19933;-90
2023/07/12 09:51:47;;;;;;;;;;;;;;;27.00;47.23;99982.56;41643018;28;19948;-85
2023/07/12 10:12:03;;;;;;;;;;;;;;;27.19;47.47;99950.47;41689958;28;19925;-84
2023/07/12 10:32:04;;;;;;;;;;;;;;;27.30;47.11;99940.28;41668570;28;19980;-84
2023/07/12 10:52:05;;;;;;;;;;;;;;;27.52;47.11;99915.84;41702338;28;19920;-86
2023/07/12 11:12:08;;;;;;;;;;;;;;;27.88;46.76;99896.69;41663084;28;19939;-84
2023/07/12 11:32:15;;;;;;;;;;;;;;;28.19;45.16;99907.34;41660167;28;19941;-81
2023/07/12 11:52:15;;;;;;;;;;;;;;;28.42;45.50;99923.31;41644487;28;19925;-81
2023/07/12 12:12:19;;;;;;;;;;;;;;;28.69;45.35;99917.66;41643718;28;19929;-77
2023/07/12 12:32:20;;;;;;;;;;;;;;;28.77;46.13;99912.22;41623892;28;19968;-79
2023/07/12 12:52:29;;;;;;;;;;;;;;;28.86;46.20;99892.50;41650148;28;19976;-79
2023/07/12 13:12:36;;;;;;;;;;;;;;;28.96;45.94;99880.75;41655184;28;20553;-83
2023/07/12 13:32:36;;;;;;;;;;;;;;;29.02;44.21;99869.38;41648301;28;19968;-84
2023/07/12 13:52:36;;;;;;;;;;;;;;;29.11;43.85;99838.91;41661842;28;19939;-84
2023/07/12 14:12:37;;;;;;;;;;;;;;;29.30;42.65;99818.91;41657508;28;19933;-81
2023/07/12 14:32:39;;;;;;;;;;;;;;;29.43;41.62;99820.06;41717692;28;19964;-80
2023/07/12 14:52:41;;;;;;;;;;;;;;;29.58;40.70;99809.34;41681682;28;19925;-82
2023/07/12 15:12:44;;;;;;;;;;;;;;;29.67;39.84;99798.38;41665037;28;19928;-82
2023/07/12 15:32:46;;;;;;;;;;;;;;;29.76;38.62;99783.09;41647575;28;19941;-78
2023/07/12 15:52:47;;;;;;;;;;;;;;;29.78;38.87;99823.72;41652858;28;19929;-85
2023/07/12 16:12:48;;;;;;;;;;;;;;;29.70;36.74;99854.03;41607213;28;19932;-82
2023/07/12 16:32:49;;;;;;;;;;;;;;;29.61;38.13;99860.50;41646774;28;19969;-87
2023/07/12 16:52:50;;;;;;;;;;;;;;;29.50;38.94;99848.50;41641241;28;19921;-81
2023/07/12 17:12:51;;;;;;;;;;;;;;;29.39;39.23;99862.28;41640546;28;19929;-95
2023/07/12 17:53:32;;;;;;;;;;;;;;;29.17;39.77;99885.34;41968234;28;19929;-85
2023/07/12 18:13:33;;;;;;;;;;;;;;;29.06;40.59;99914.13;41867670;28;20362;-86
2023/07/12 18:33:36;;;;;;;;;;;;;;;28.98;41.57;99889.38;41787912;28;19985;-85
2023/07/12 18:53:37;;;;;;;;;;;;;;;28.91;42.21;99918.63;41797307;28;19932;-81
2023/07/12 19:13:38;;;;;;;;;;;;;;;28.77;42.47;99946.06;41833743;28;20407;-78
2023/07/12 19:33:38;;;;;;;;;;;;;;;28.56;41.71;99953.69;41804770;28;20027;-74
2023/07/12 19:53:39;;;;;;;;;;;;;;;28.48;42.78;99964.41;41855041;28;20641;-72
2023/07/12 20:13:39;;;;;;;;;;;;;;;28.41;42.65;99964.28;41825111;28;19974;-82
2023/07/12 20:33:41;;;;;;;;;;;;;;;28.36;42.75;99956.00;41891295;28;19909;-92
2023/07/12 20:53:43;;;;;;;;;;;;;;;28.31;43.58;99942.38;41910388;28;19933;-89
2023/07/12 21:13:44;;;;;;;;;;;;;;;28.13;44.87;99958.63;41939330;28;19971;-96
2023/07/12 21:33:44;;;;;;;;;;;;;;;27.98;45.41;99957.69;41915654;28;19998;-93
2023/07/12 21:53:46;;;;;;;;;;;;;;;27.82;45.27;99967.41;41928042;28;19928;-85
2023/07/12 22:13:49;;;;;;;;;;;;;;;27.53;46.34;99986.66;41890617;28;20010;-85
2023/07/12 22:33:50;;;;;;;;;;;;;;;27.49;46.81;100036.69;41886905;28;19959;-85
2023/07/12 22:53:51;;;;;;;;;;;;;;;27.41;47.63;100068.59;41878060;28;19940;-85
2023/07/12 23:13:57;;;;;;;;;;;;;;;27.43;48.27;100011.59;41989629;22;19928;-92
2023/07/12 23:33:59;;;;;;;;;;;;;;;27.26;49.20;100087.03;42156630;28;21626;-83
2023/07/12 23:54:02;;;;;;;;;;;;;;;26.94;51.11;100109.91;42135787;28;21472;-86
